sensor_id;sensor_type;location;lat;lon;timestamp;temperature;humidity
68912;SHT31;55953;51.650;-0.522;2023-05-10T00:00:04;11.72;87.58
68912;SHT31;55953;51.650;-0.522;2023-05-10T00:02:59;11.73;87.61
68912;SHT31;55953;51.650;-0.522;2023-05-10T00:05:27;11.70;87.68
68912;SHT31;55953;51.650;-0.522;2023-05-10T00:07:55;11.69;87.58
68912;SHT31;55953;51.650;-0.522;2023-05-10T00:10:23;11.65;87.57
68912;SHT31;55953;51.650;-0.522;2023-05-10T00:12:51;11.62;87.61
68912;SHT31;55953;51.650;-0.522;2023-05-10T00:15:18;11.59;87.69
68912;SHT31;55953;51.650;-0.522;2023-05-10T00:17:46;11.55;87.80
68912;SHT31;55953;51.650;-0.522;2023-05-10T00:20:14;11.52;87.83
68912;SHT31;55953;51.650;-0.522;2023-05-10T00:22:43;11.52;87.87
68912;SHT31;55953;51.650;-0.522;2023-05-10T00:25:11;11.50;87.83
68912;SHT31;55953;51.650;-0.522;2023-05-10T00:27:38;11.47;87.90
68912;SHT31;55953;51.650;-0.522;2023-05-10T00:30:06;11.46;88.01
68912;SHT31;55953;51.650;-0.522;2023-05-10T00:32:35;11.42;87.95
68912;SHT31;55953;51.650;-0.522;2023-05-10T00:35:03;11.40;87.98
68912;SHT31;55953;51.650;-0.522;2023-05-10T00:37:31;11.36;88.14
68912;SHT31;55953;51.650;-0.522;2023-05-10T00:39:59;11.34;88.17
68912;SHT31;55953;51.650;-0.522;2023-05-10T00:42:27;11.30;88.06
68912;SHT31;55953;51.650;-0.522;2023-05-10T00:44:55;11.27;88.04
68912;SHT31;55953;51.650;-0.522;2023-05-10T00:47:23;11.25;88.10
68912;SHT31;55953;51.650;-0.522;2023-05-10T00:49:51;11.24;88.10
68912;SHT31;55953;51.650;-0.522;2023-05-10T00:52:19;11.22;88.03
68912;SHT31;55953;51.650;-0.522;2023-05-10T00:54:47;11.20;88.12
68912;SHT31;55953;51.650;-0.522;2023-05-10T00:57:16;11.17;88.09
68912;SHT31;55953;51.650;-0.522;2023-05-10T00:59:44;11.16;88.18
68912;SHT31;55953;51.650;-0.522;2023-05-10T01:02:13;11.13;88.14
68912;SHT31;55953;51.650;-0.522;2023-05-10T01:04:41;11.09;88.12
68912;SHT31;55953;51.650;-0.522;2023-05-10T01:07:10;11.06;88.19
68912;SHT31;55953;51.650;-0.522;2023-05-10T01:09:38;11.03;88.38
68912;SHT31;55953;51.650;-0.522;2023-05-10T01:12:06;11.04;88.55
68912;SHT31;55953;51.650;-0.522;2023-05-10T01:14:38;11.03;88.49
68912;SHT31;55953;51.650;-0.522;2023-05-10T01:17:06;11.02;88.49
68912;SHT31;55953;51.650;-0.522;2023-05-10T01:19:36;11.00;88.42
68912;SHT31;55953;51.650;-0.522;2023-05-10T01:25:17;11.02;88.47
68912;SHT31;55953;51.650;-0.522;2023-05-10T01:34:20;10.99;88.49
68912;SHT31;55953;51.650;-0.522;2023-05-10T01:37:02;10.98;88.45
68912;SHT31;55953;51.650;-0.522;2023-05-10T01:39:44;11.00;88.54
68912;SHT31;55953;51.650;-0.522;2023-05-10T01:42:25;11.00;88.58
68912;SHT31;55953;51.650;-0.522;2023-05-10T01:45:09;10.99;88.60
68912;SHT31;55953;51.650;-0.522;2023-05-10T01:47:54;10.94;88.45
68912;SHT31;55953;51.650;-0.522;2023-05-10T01:50:34;10.86;88.27
68912;SHT31;55953;51.650;-0.522;2023-05-10T01:53:07;10.85;88.48
68912;SHT31;55953;51.650;-0.522;2023-05-10T01:55:45;10.86;88.54
68912;SHT31;55953;51.650;-0.522;2023-05-10T01:58:37;10.84;88.60
68912;SHT31;55953;51.650;-0.522;2023-05-10T02:01:08;10.84;88.54
68912;SHT31;55953;51.650;-0.522;2023-05-10T02:03:37;10.80;88.38
68912;SHT31;55953;51.650;-0.522;2023-05-10T02:06:08;10.76;88.27
68912;SHT31;55953;51.650;-0.522;2023-05-10T02:08:38;10.74;88.39
68912;SHT31;55953;51.650;-0.522;2023-05-10T02:11:08;10.72;88.38
68912;SHT31;55953;51.650;-0.522;2023-05-10T02:13:40;10.72;88.48
68912;SHT31;55953;51.650;-0.522;2023-05-10T02:16:11;10.73;88.40
68912;SHT31;55953;51.650;-0.522;2023-05-10T02:18:41;10.69;88.32
68912;SHT31;55953;51.650;-0.522;2023-05-10T02:21:10;10.68;88.49
68912;SHT31;55953;51.650;-0.522;2023-05-10T02:23:40;10.65;88.35
68912;SHT31;55953;51.650;-0.522;2023-05-10T02:26:10;10.65;88.49
68912;SHT31;55953;51.650;-0.522;2023-05-10T02:28:42;10.63;88.43
68912;SHT31;55953;51.650;-0.522;2023-05-10T02:31:10;10.63;88.55
68912;SHT31;55953;51.650;-0.522;2023-05-10T02:33:39;10.64;88.55
68912;SHT31;55953;51.650;-0.522;2023-05-10T02:36:08;10.64;88.62
68912;SHT31;55953;51.650;-0.522;2023-05-10T02:38:38;10.67;88.71
68912;SHT31;55953;51.650;-0.522;2023-05-10T02:41:07;10.66;88.55
68912;SHT31;55953;51.650;-0.522;2023-05-10T02:43:38;10.67;88.64
68912;SHT31;55953;51.650;-0.522;2023-05-10T02:46:08;10.68;88.67
68912;SHT31;55953;51.650;-0.522;2023-05-10T02:48:36;10.70;88.64
68912;SHT31;55953;51.650;-0.522;2023-05-10T02:51:05;10.72;88.56
68912;SHT31;55953;51.650;-0.522;2023-05-10T02:53:36;10.71;88.46
68912;SHT31;55953;51.650;-0.522;2023-05-10T02:56:15;10.70;88.39
68912;SHT31;55953;51.650;-0.522;2023-05-10T02:58:53;10.68;88.32
68912;SHT31;55953;51.650;-0.522;2023-05-10T03:01:21;10.66;88.28
68912;SHT31;55953;51.650;-0.522;2023-05-10T03:03:49;10.64;88.22
68912;SHT31;55953;51.650;-0.522;2023-05-10T03:06:16;10.61;88.12
68912;SHT31;55953;51.650;-0.522;2023-05-10T03:08:44;10.57;88.17
68912;SHT31;55953;51.650;-0.522;2023-05-10T03:14:42;10.52;88.02
68912;SHT31;55953;51.650;-0.522;2023-05-10T03:17:25;10.50;87.91
68912;SHT31;55953;51.650;-0.522;2023-05-10T03:20:03;10.46;87.90
68912;SHT31;55953;51.650;-0.522;2023-05-10T03:22:45;10.44;87.84
68912;SHT31;55953;51.650;-0.522;2023-05-10T03:25:17;10.39;87.79
68912;SHT31;55953;51.650;-0.522;2023-05-10T03:27:48;10.38;87.88
68912;SHT31;55953;51.650;-0.522;2023-05-10T03:30:17;10.35;87.80
68912;SHT31;55953;51.650;-0.522;2023-05-10T03:32:46;10.29;87.68
68912;SHT31;55953;51.650;-0.522;2023-05-10T03:35:15;10.26;87.71
68912;SHT31;55953;51.650;-0.522;2023-05-10T03:37:43;10.25;87.82
68912;SHT31;55953;51.650;-0.522;2023-05-10T03:40:11;10.23;87.78
68912;SHT31;55953;51.650;-0.522;2023-05-10T03:42:41;10.19;87.69
68912;SHT31;55953;51.650;-0.522;2023-05-10T03:45:09;10.13;87.71
68912;SHT31;55953;51.650;-0.522;2023-05-10T03:47:37;10.10;87.81
68912;SHT31;55953;51.650;-0.522;2023-05-10T03:50:05;10.04;87.78
68912;SHT31;55953;51.650;-0.522;2023-05-10T03:52:34;9.98;87.81
68912;SHT31;55953;51.650;-0.522;2023-05-10T03:55:02;9.92;87.87
68912;SHT31;55953;51.650;-0.522;2023-05-10T03:57:31;9.89;87.98
68912;SHT31;55953;51.650;-0.522;2023-05-10T04:00:00;9.85;88.00
68912;SHT31;55953;51.650;-0.522;2023-05-10T04:02:28;9.79;88.00
68912;SHT31;55953;51.650;-0.522;2023-05-10T04:04:57;9.75;88.12
68912;SHT31;55953;51.650;-0.522;2023-05-10T04:07:25;9.73;88.25
68912;SHT31;55953;51.650;-0.522;2023-05-10T04:09:53;9.69;88.30
68912;SHT31;55953;51.650;-0.522;2023-05-10T04:12:22;9.65;88.38
68912;SHT31;55953;51.650;-0.522;2023-05-10T04:14:50;9.60;88.48
68912;SHT31;55953;51.650;-0.522;2023-05-10T04:17:19;9.56;88.50
68912;SHT31;55953;51.650;-0.522;2023-05-10T04:19:47;9.54;88.57
68912;SHT31;55953;51.650;-0.522;2023-05-10T04:22:15;9.54;88.64
68912;SHT31;55953;51.650;-0.522;2023-05-10T04:24:43;9.51;88.70
68912;SHT31;55953;51.650;-0.522;2023-05-10T04:27:11;9.52;88.81
68912;SHT31;55953;51.650;-0.522;2023-05-10T04:29:38;9.54;88.90
68912;SHT31;55953;51.650;-0.522;2023-05-10T04:32:07;9.55;88.87
68912;SHT31;55953;51.650;-0.522;2023-05-10T04:34:35;9.56;88.98
68912;SHT31;55953;51.650;-0.522;2023-05-10T04:37:04;9.56;88.91
68912;SHT31;55953;51.650;-0.522;2023-05-10T04:39:32;9.55;88.89
68912;SHT31;55953;51.650;-0.522;2023-05-10T04:42:01;9.55;88.92
68912;SHT31;55953;51.650;-0.522;2023-05-10T04:44:30;9.56;89.00
68912;SHT31;55953;51.650;-0.522;2023-05-10T04:47:01;9.59;88.98
68912;SHT31;55953;51.650;-0.522;2023-05-10T04:49:30;9.60;88.94
68912;SHT31;55953;51.650;-0.522;2023-05-10T04:51:58;9.59;88.93
68912;SHT31;55953;51.650;-0.522;2023-05-10T04:54:26;9.63;89.00
68912;SHT31;55953;51.650;-0.522;2023-05-10T04:56:53;9.66;89.03
68912;SHT31;55953;51.650;-0.522;2023-05-10T04:59:21;9.71;89.06
68912;SHT31;55953;51.650;-0.522;2023-05-10T05:01:49;9.74;89.07
68912;SHT31;55953;51.650;-0.522;2023-05-10T05:04:17;9.78;89.09
68912;SHT31;55953;51.650;-0.522;2023-05-10T05:06:45;9.82;89.07
68912;SHT31;55953;51.650;-0.522;2023-05-10T05:09:12;9.85;89.07
68912;SHT31;55953;51.650;-0.522;2023-05-10T05:11:40;9.90;89.20
68912;SHT31;55953;51.650;-0.522;2023-05-10T05:14:08;9.97;89.18
68912;SHT31;55953;51.650;-0.522;2023-05-10T05:16:36;10.00;89.00
68912;SHT31;55953;51.650;-0.522;2023-05-10T05:19:04;10.00;89.11
68912;SHT31;55953;51.650;-0.522;2023-05-10T05:21:32;10.00;89.02
68912;SHT31;55953;51.650;-0.522;2023-05-10T05:24:00;9.99;89.08
68912;SHT31;55953;51.650;-0.522;2023-05-10T05:26:28;10.01;88.94
68912;SHT31;55953;51.650;-0.522;2023-05-10T05:28:56;10.04;89.01
68912;SHT31;55953;51.650;-0.522;2023-05-10T05:31:24;10.06;89.10
68912;SHT31;55953;51.650;-0.522;2023-05-10T05:33:52;10.08;89.17
68912;SHT31;55953;51.650;-0.522;2023-05-10T05:36:20;10.11;89.13
68912;SHT31;55953;51.650;-0.522;2023-05-10T05:38:48;10.17;89.16
68912;SHT31;55953;51.650;-0.522;2023-05-10T05:41:16;10.20;89.08
68912;SHT31;55953;51.650;-0.522;2023-05-10T05:43:44;10.23;89.09
68912;SHT31;55953;51.650;-0.522;2023-05-10T05:46:12;10.28;89.14
68912;SHT31;55953;51.650;-0.522;2023-05-10T05:48:39;10.32;89.06
68912;SHT31;55953;51.650;-0.522;2023-05-10T05:51:07;10.35;89.00
68912;SHT31;55953;51.650;-0.522;2023-05-10T05:53:35;10.37;88.86
68912;SHT31;55953;51.650;-0.522;2023-05-10T05:56:03;10.38;88.78
68912;SHT31;55953;51.650;-0.522;2023-05-10T05:58:31;10.41;88.67
68912;SHT31;55953;51.650;-0.522;2023-05-10T06:00:59;10.45;88.61
68912;SHT31;55953;51.650;-0.522;2023-05-10T06:03:27;10.48;88.33
68912;SHT31;55953;51.650;-0.522;2023-05-10T06:05:55;10.52;88.28
68912;SHT31;55953;51.650;-0.522;2023-05-10T06:08:23;10.54;88.04
68912;SHT31;55953;51.650;-0.522;2023-05-10T06:10:50;10.61;88.02
68912;SHT31;55953;51.650;-0.522;2023-05-10T06:13:18;10.67;87.97
68912;SHT31;55953;51.650;-0.522;2023-05-10T06:15:46;10.73;87.87
68912;SHT31;55953;51.650;-0.522;2023-05-10T06:18:14;10.78;87.81
68912;SHT31;55953;51.650;-0.522;2023-05-10T06:20:42;10.83;87.79
68912;SHT31;55953;51.650;-0.522;2023-05-10T06:23:10;10.88;87.75
68912;SHT31;55953;51.650;-0.522;2023-05-10T06:25:38;10.95;87.76
68912;SHT31;55953;51.650;-0.522;2023-05-10T06:28:06;11.02;87.66
68912;SHT31;55953;51.650;-0.522;2023-05-10T06:30:35;11.12;87.67
68912;SHT31;55953;51.650;-0.522;2023-05-10T06:33:04;11.19;87.61
68912;SHT31;55953;51.650;-0.522;2023-05-10T06:35:32;11.24;87.40
68912;SHT31;55953;51.650;-0.522;2023-05-10T06:38:02;11.30;87.37
68912;SHT31;55953;51.650;-0.522;2023-05-10T06:40:29;11.39;87.36
68912;SHT31;55953;51.650;-0.522;2023-05-10T06:42:57;11.44;87.18
68912;SHT31;55953;51.650;-0.522;2023-05-10T06:45:25;11.46;86.72
68912;SHT31;55953;51.650;-0.522;2023-05-10T06:47:53;11.50;86.64
68912;SHT31;55953;51.650;-0.522;2023-05-10T06:50:21;11.53;86.31
68912;SHT31;55953;51.650;-0.522;2023-05-10T06:52:48;11.54;85.93
68912;SHT31;55953;51.650;-0.522;2023-05-10T06:55:19;11.57;85.88
68912;SHT31;55953;51.650;-0.522;2023-05-10T06:57:47;11.66;86.11
68912;SHT31;55953;51.650;-0.522;2023-05-10T07:00:15;11.74;85.37
68912;SHT31;55953;51.650;-0.522;2023-05-10T07:02:44;11.86;85.61
68912;SHT31;55953;51.650;-0.522;2023-05-10T07:05:12;12.00;85.52
68912;SHT31;55953;51.650;-0.522;2023-05-10T07:07:41;12.07;85.38
68912;SHT31;55953;51.650;-0.522;2023-05-10T07:10:09;12.14;85.07
68912;SHT31;55953;51.650;-0.522;2023-05-10T07:12:37;12.19;84.81
68912;SHT31;55953;51.650;-0.522;2023-05-10T07:15:06;12.25;85.14
68912;SHT31;55953;51.650;-0.522;2023-05-10T07:17:35;12.30;84.87
68912;SHT31;55953;51.650;-0.522;2023-05-10T07:20:03;12.34;84.57
68912;SHT31;55953;51.650;-0.522;2023-05-10T07:22:31;12.49;84.97
68912;SHT31;55953;51.650;-0.522;2023-05-10T07:24:59;12.56;84.77
68912;SHT31;55953;51.650;-0.522;2023-05-10T07:27:27;12.53;84.09
68912;SHT31;55953;51.650;-0.522;2023-05-10T07:29:55;12.52;83.99
68912;SHT31;55953;51.650;-0.522;2023-05-10T07:32:23;12.52;83.43
68912;SHT31;55953;51.650;-0.522;2023-05-10T07:34:51;12.60;83.98
68912;SHT31;55953;51.650;-0.522;2023-05-10T07:37:19;12.63;83.77
68912;SHT31;55953;51.650;-0.522;2023-05-10T07:39:47;12.61;83.41
68912;SHT31;55953;51.650;-0.522;2023-05-10T07:42:15;12.64;83.27
68912;SHT31;55953;51.650;-0.522;2023-05-10T07:44:43;12.64;83.28
68912;SHT31;55953;51.650;-0.522;2023-05-10T07:47:11;12.67;83.46
68912;SHT31;55953;51.650;-0.522;2023-05-10T07:49:38;12.71;82.78
68912;SHT31;55953;51.650;-0.522;2023-05-10T07:52:06;12.77;83.11
68912;SHT31;55953;51.650;-0.522;2023-05-10T07:54:34;12.87;82.94
68912;SHT31;55953;51.650;-0.522;2023-05-10T07:57:02;12.90;82.10
68912;SHT31;55953;51.650;-0.522;2023-05-10T07:59:30;12.89;81.99
68912;SHT31;55953;51.650;-0.522;2023-05-10T08:01:58;12.97;82.33
68912;SHT31;55953;51.650;-0.522;2023-05-10T08:04:26;13.05;82.17
68912;SHT31;55953;51.650;-0.522;2023-05-10T08:06:54;13.12;81.78
68912;SHT31;55953;51.650;-0.522;2023-05-10T08:09:22;13.21;81.91
68912;SHT31;55953;51.650;-0.522;2023-05-10T08:11:51;13.28;81.02
68912;SHT31;55953;51.650;-0.522;2023-05-10T08:14:19;13.38;81.68
68912;SHT31;55953;51.650;-0.522;2023-05-10T08:16:47;13.49;81.87
68912;SHT31;55953;51.650;-0.522;2023-05-10T08:19:15;13.59;81.48
68912;SHT31;55953;51.650;-0.522;2023-05-10T08:21:47;13.70;80.89
68912;SHT31;55953;51.650;-0.522;2023-05-10T08:24:15;13.68;80.88
68912;SHT31;55953;51.650;-0.522;2023-05-10T08:26:43;13.62;80.00
68912;SHT31;55953;51.650;-0.522;2023-05-10T08:29:10;13.64;80.32
68912;SHT31;55953;51.650;-0.522;2023-05-10T08:31:38;13.71;80.25
68912;SHT31;55953;51.650;-0.522;2023-05-10T08:34:07;13.82;79.84
68912;SHT31;55953;51.650;-0.522;2023-05-10T08:36:35;13.92;80.88
68912;SHT31;55953;51.650;-0.522;2023-05-10T08:39:03;14.00;80.44
68912;SHT31;55953;51.650;-0.522;2023-05-10T08:41:34;14.14;80.87
68912;SHT31;55953;51.650;-0.522;2023-05-10T08:44:07;14.16;79.68
68912;SHT31;55953;51.650;-0.522;2023-05-10T08:46:35;14.13;79.82
68912;SHT31;55953;51.650;-0.522;2023-05-10T08:49:12;14.14;78.87
68912;SHT31;55953;51.650;-0.522;2023-05-10T08:51:53;14.20;79.63
68912;SHT31;55953;51.650;-0.522;2023-05-10T08:54:23;14.22;78.45
68912;SHT31;55953;51.650;-0.522;2023-05-10T08:56:52;14.26;78.69
68912;SHT31;55953;51.650;-0.522;2023-05-10T08:59:20;14.25;78.33
68912;SHT31;55953;51.650;-0.522;2023-05-10T09:01:48;14.28;77.94
68912;SHT31;55953;51.650;-0.522;2023-05-10T09:04:18;14.40;78.91
68912;SHT31;55953;51.650;-0.522;2023-05-10T09:06:48;14.63;78.61
68912;SHT31;55953;51.650;-0.522;2023-05-10T09:09:17;14.77;78.69
68912;SHT31;55953;51.650;-0.522;2023-05-10T09:11:46;14.78;77.28
68912;SHT31;55953;51.650;-0.522;2023-05-10T09:14:15;14.74;76.77
68912;SHT31;55953;51.650;-0.522;2023-05-10T09:16:44;14.67;76.10
68912;SHT31;55953;51.650;-0.522;2023-05-10T09:19:13;14.70;76.26
68912;SHT31;55953;51.650;-0.522;2023-05-10T09:21:41;14.78;77.84
68912;SHT31;55953;51.650;-0.522;2023-05-10T09:24:09;14.80;77.70
68912;SHT31;55953;51.650;-0.522;2023-05-10T09:26:45;14.81;76.67
68912;SHT31;55953;51.650;-0.522;2023-05-10T09:29:18;14.86;76.40
68912;SHT31;55953;51.650;-0.522;2023-05-10T09:31:49;14.97;76.23
68912;SHT31;55953;51.650;-0.522;2023-05-10T09:34:22;14.99;75.71
68912;SHT31;55953;51.650;-0.522;2023-05-10T09:36:59;15.01;75.89
68912;SHT31;55953;51.650;-0.522;2023-05-10T09:39:30;15.14;76.19
68912;SHT31;55953;51.650;-0.522;2023-05-10T09:42:01;15.29;74.42
68912;SHT31;55953;51.650;-0.522;2023-05-10T09:44:35;15.40;73.89
68912;SHT31;55953;51.650;-0.522;2023-05-10T09:47:03;15.53;73.67
68912;SHT31;55953;51.650;-0.522;2023-05-10T09:49:31;15.61;72.55
68912;SHT31;55953;51.650;-0.522;2023-05-10T09:52:04;15.64;73.90
68912;SHT31;55953;51.650;-0.522;2023-05-10T09:54:34;15.67;73.90
68912;SHT31;55953;51.650;-0.522;2023-05-10T09:57:03;15.65;70.98
68912;SHT31;55953;51.650;-0.522;2023-05-10T09:59:32;15.72;71.45
68912;SHT31;55953;51.650;-0.522;2023-05-10T10:02:02;15.79;71.12
68912;SHT31;55953;51.650;-0.522;2023-05-10T10:04:31;15.95;71.60
68912;SHT31;55953;51.650;-0.522;2023-05-10T10:07:03;16.01;71.20
68912;SHT31;55953;51.650;-0.522;2023-05-10T10:09:32;16.11;72.02
68912;SHT31;55953;51.650;-0.522;2023-05-10T10:12:02;16.26;71.48
68912;SHT31;55953;51.650;-0.522;2023-05-10T10:14:31;16.38;70.68
68912;SHT31;55953;51.650;-0.522;2023-05-10T10:17:00;16.63;70.19
68912;SHT31;55953;51.650;-0.522;2023-05-10T10:19:32;16.90;68.19
68912;SHT31;55953;51.650;-0.522;2023-05-10T10:22:03;16.98;66.86
68912;SHT31;55953;51.650;-0.522;2023-05-10T10:24:31;17.21;69.23
68912;SHT31;55953;51.650;-0.522;2023-05-10T10:27:02;17.27;66.73
68912;SHT31;55953;51.650;-0.522;2023-05-10T10:32:27;17.52;65.54
68912;SHT31;55953;51.650;-0.522;2023-05-10T10:35:09;17.59;65.73
68912;SHT31;55953;51.650;-0.522;2023-05-10T10:37:43;17.61;66.07
68912;SHT31;55953;51.650;-0.522;2023-05-10T10:40:22;17.58;65.48
68912;SHT31;55953;51.650;-0.522;2023-05-10T10:42:53;17.59;65.32
68912;SHT31;55953;51.650;-0.522;2023-05-10T10:45:23;17.51;63.59
68912;SHT31;55953;51.650;-0.522;2023-05-10T10:48:27;17.35;62.29
68912;SHT31;55953;51.650;-0.522;2023-05-10T10:50:55;17.13;63.92
68912;SHT31;55953;51.650;-0.522;2023-05-10T10:53:27;16.91;64.87
68912;SHT31;55953;51.650;-0.522;2023-05-10T10:56:02;16.84;66.16
68912;SHT31;55953;51.650;-0.522;2023-05-10T10:58:35;16.79;64.82
68912;SHT31;55953;51.650;-0.522;2023-05-10T11:01:13;16.95;65.74
68912;SHT31;55953;51.650;-0.522;2023-05-10T11:04:16;17.10;65.40
68912;SHT31;55953;51.650;-0.522;2023-05-10T11:06:46;17.34;65.50
68912;SHT31;55953;51.650;-0.522;2023-05-10T11:09:14;17.51;63.43
68912;SHT31;55953;51.650;-0.522;2023-05-10T11:11:51;17.73;63.03
68912;SHT31;55953;51.650;-0.522;2023-05-10T11:14:22;17.77;63.16
68912;SHT31;55953;51.650;-0.522;2023-05-10T11:16:51;17.83;62.95
68912;SHT31;55953;51.650;-0.522;2023-05-10T11:19:19;17.85;63.42
68912;SHT31;55953;51.650;-0.522;2023-05-10T11:21:51;17.83;63.25
68912;SHT31;55953;51.650;-0.522;2023-05-10T11:24:55;17.83;63.64
68912;SHT31;55953;51.650;-0.522;2023-05-10T11:27:25;17.83;64.56
68912;SHT31;55953;51.650;-0.522;2023-05-10T11:29:53;17.62;64.39
68912;SHT31;55953;51.650;-0.522;2023-05-10T11:32:21;17.30;65.37
68912;SHT31;55953;51.650;-0.522;2023-05-10T11:34:50;17.11;66.48
68912;SHT31;55953;51.650;-0.522;2023-05-10T11:37:17;16.98;66.85
68912;SHT31;55953;51.650;-0.522;2023-05-10T11:39:46;16.83;66.41
68912;SHT31;55953;51.650;-0.522;2023-05-10T11:42:17;16.79;67.48
68912;SHT31;55953;51.650;-0.522;2023-05-10T11:44:46;16.78;67.49
68912;SHT31;55953;51.650;-0.522;2023-05-10T11:47:15;16.76;67.11
68912;SHT31;55953;51.650;-0.522;2023-05-10T11:49:43;16.86;68.25
68912;SHT31;55953;51.650;-0.522;2023-05-10T11:52:12;17.10;68.97
68912;SHT31;55953;51.650;-0.522;2023-05-10T11:54:53;17.29;69.10
68912;SHT31;55953;51.650;-0.522;2023-05-10T11:57:25;17.36;68.42
68912;SHT31;55953;51.650;-0.522;2023-05-10T11:59:56;17.48;68.02
68912;SHT31;55953;51.650;-0.522;2023-05-10T12:02:24;17.72;66.54
68912;SHT31;55953;51.650;-0.522;2023-05-10T12:04:54;18.08;66.37
68912;SHT31;55953;51.650;-0.522;2023-05-10T12:07:23;18.32;63.89
68912;SHT31;55953;51.650;-0.522;2023-05-10T12:10:03;18.24;62.56
68912;SHT31;55953;51.650;-0.522;2023-05-10T12:12:38;18.22;62.71
68912;SHT31;55953;51.650;-0.522;2023-05-10T12:15:11;18.44;62.83
68912;SHT31;55953;51.650;-0.522;2023-05-10T12:17:50;18.70;62.64
68912;SHT31;55953;51.650;-0.522;2023-05-10T12:20:19;18.79;61.64
68912;SHT31;55953;51.650;-0.522;2023-05-10T12:22:51;18.77;61.37
68912;SHT31;55953;51.650;-0.522;2023-05-10T12:25:22;18.74;61.86
68912;SHT31;55953;51.650;-0.522;2023-05-10T12:27:57;18.76;62.31
68912;SHT31;55953;51.650;-0.522;2023-05-10T12:30:30;18.78;61.83
68912;SHT31;55953;51.650;-0.522;2023-05-10T12:33:01;18.82;62.30
68912;SHT31;55953;51.650;-0.522;2023-05-10T12:35:52;18.97;61.77
68912;SHT31;55953;51.650;-0.522;2023-05-10T12:41:03;18.71;61.99
68912;SHT31;55953;51.650;-0.522;2023-05-10T12:43:33;18.47;62.45
68912;SHT31;55953;51.650;-0.522;2023-05-10T12:46:12;18.25;64.19
68912;SHT31;55953;51.650;-0.522;2023-05-10T12:48:42;18.02;65.73
68912;SHT31;55953;51.650;-0.522;2023-05-10T12:51:12;17.84;66.47
68912;SHT31;55953;51.650;-0.522;2023-05-10T12:53:43;17.79;66.38
68912;SHT31;55953;51.650;-0.522;2023-05-10T12:56:16;17.99;68.00
68912;SHT31;55953;51.650;-0.522;2023-05-10T12:58:44;18.31;68.12
68912;SHT31;55953;51.650;-0.522;2023-05-10T13:01:15;18.51;68.07
68912;SHT31;55953;51.650;-0.522;2023-05-10T13:03:43;18.67;67.54
68912;SHT31;55953;51.650;-0.522;2023-05-10T13:06:11;18.87;66.46
68912;SHT31;55953;51.650;-0.522;2023-05-10T13:08:40;18.96;66.19
68912;SHT31;55953;51.650;-0.522;2023-05-10T13:11:08;19.14;66.45
68912;SHT31;55953;51.650;-0.522;2023-05-10T13:13:36;19.49;64.98
68912;SHT31;55953;51.650;-0.522;2023-05-10T13:16:04;19.65;63.30
68912;SHT31;55953;51.650;-0.522;2023-05-10T13:18:32;19.69;63.73
68912;SHT31;55953;51.650;-0.522;2023-05-10T13:21:00;19.78;63.37
68912;SHT31;55953;51.650;-0.522;2023-05-10T13:23:31;19.92;63.03
68912;SHT31;55953;51.650;-0.522;2023-05-10T13:25:59;19.97;61.41
68912;SHT31;55953;51.650;-0.522;2023-05-10T13:28:27;20.10;61.80
68912;SHT31;55953;51.650;-0.522;2023-05-10T13:30:55;20.39;61.50
68912;SHT31;55953;51.650;-0.522;2023-05-10T13:33:23;20.54;61.51
68912;SHT31;55953;51.650;-0.522;2023-05-10T13:35:50;20.63;61.12
68912;SHT31;55953;51.650;-0.522;2023-05-10T13:38:22;20.42;58.85
68912;SHT31;55953;51.650;-0.522;2023-05-10T13:40:49;20.11;59.13
68912;SHT31;55953;51.650;-0.522;2023-05-10T13:43:20;19.85;60.32
68912;SHT31;55953;51.650;-0.522;2023-05-10T13:45:48;19.54;60.73
68912;SHT31;55953;51.650;-0.522;2023-05-10T13:48:15;19.31;61.25
68912;SHT31;55953;51.650;-0.522;2023-05-10T13:50:43;19.00;61.14
68912;SHT31;55953;51.650;-0.522;2023-05-10T13:53:11;18.78;62.69
68912;SHT31;55953;51.650;-0.522;2023-05-10T13:55:39;18.55;64.46
68912;SHT31;55953;51.650;-0.522;2023-05-10T13:58:07;18.24;64.31
68912;SHT31;55953;51.650;-0.522;2023-05-10T14:00:35;17.85;64.78
68912;SHT31;55953;51.650;-0.522;2023-05-10T14:03:03;17.56;65.46
68912;SHT31;55953;51.650;-0.522;2023-05-10T14:05:32;17.33;65.91
68912;SHT31;55953;51.650;-0.522;2023-05-10T14:08:00;17.23;66.64
68912;SHT31;55953;51.650;-0.522;2023-05-10T14:10:28;17.06;66.81
68912;SHT31;55953;51.650;-0.522;2023-05-10T14:12:56;17.11;67.72
68912;SHT31;55953;51.650;-0.522;2023-05-10T14:15:24;17.31;67.13
68912;SHT31;55953;51.650;-0.522;2023-05-10T14:17:51;17.76;67.34
68912;SHT31;55953;51.650;-0.522;2023-05-10T14:20:19;18.23;66.15
68912;SHT31;55953;51.650;-0.522;2023-05-10T14:22:47;18.78;66.17
68912;SHT31;55953;51.650;-0.522;2023-05-10T14:25:15;18.93;64.74
68912;SHT31;55953;51.650;-0.522;2023-05-10T14:27:43;18.88;65.08
68912;SHT31;55953;51.650;-0.522;2023-05-10T14:30:11;18.72;64.94
68912;SHT31;55953;51.650;-0.522;2023-05-10T14:32:39;18.50;64.26
68912;SHT31;55953;51.650;-0.522;2023-05-10T14:35:07;18.30;64.97
68912;SHT31;55953;51.650;-0.522;2023-05-10T14:37:39;18.17;64.81
68912;SHT31;55953;51.650;-0.522;2023-05-10T14:40:07;18.12;65.13
68912;SHT31;55953;51.650;-0.522;2023-05-10T14:42:36;18.23;65.32
68912;SHT31;55953;51.650;-0.522;2023-05-10T14:45:04;18.40;65.24
68912;SHT31;55953;51.650;-0.522;2023-05-10T14:47:33;18.59;65.11
68912;SHT31;55953;51.650;-0.522;2023-05-10T14:50:00;18.76;64.90
68912;SHT31;55953;51.650;-0.522;2023-05-10T14:52:29;18.86;65.14
68912;SHT31;55953;51.650;-0.522;2023-05-10T14:54:59;18.94;65.51
68912;SHT31;55953;51.650;-0.522;2023-05-10T14:57:28;19.03;65.22
68912;SHT31;55953;51.650;-0.522;2023-05-10T14:59:57;19.22;64.49
68912;SHT31;55953;51.650;-0.522;2023-05-10T15:02:25;19.39;62.91
68912;SHT31;55953;51.650;-0.522;2023-05-10T15:04:53;19.46;63.39
68912;SHT31;55953;51.650;-0.522;2023-05-10T15:07:21;19.58;63.61
68912;SHT31;55953;51.650;-0.522;2023-05-10T15:09:50;19.60;63.87
68912;SHT31;55953;51.650;-0.522;2023-05-10T15:12:19;19.38;63.86
68912;SHT31;55953;51.650;-0.522;2023-05-10T15:14:47;19.13;63.02
68912;SHT31;55953;51.650;-0.522;2023-05-10T15:17:14;18.89;63.77
68912;SHT31;55953;51.650;-0.522;2023-05-10T15:19:43;18.79;64.78
68912;SHT31;55953;51.650;-0.522;2023-05-10T15:22:11;18.62;65.49
68912;SHT31;55953;51.650;-0.522;2023-05-10T15:24:39;18.46;66.01
68912;SHT31;55953;51.650;-0.522;2023-05-10T15:27:07;18.31;66.77
68912;SHT31;55953;51.650;-0.522;2023-05-10T15:29:35;18.04;67.38
68912;SHT31;55953;51.650;-0.522;2023-05-10T15:32:03;17.83;67.88
68912;SHT31;55953;51.650;-0.522;2023-05-10T15:34:31;17.81;67.49
68912;SHT31;55953;51.650;-0.522;2023-05-10T15:37:02;17.80;67.98
68912;SHT31;55953;51.650;-0.522;2023-05-10T15:39:30;17.95;68.50
68912;SHT31;55953;51.650;-0.522;2023-05-10T15:41:58;18.33;68.17
68912;SHT31;55953;51.650;-0.522;2023-05-10T15:44:26;18.71;67.03
68912;SHT31;55953;51.650;-0.522;2023-05-10T15:46:53;18.87;66.36
68912;SHT31;55953;51.650;-0.522;2023-05-10T15:49:21;18.95;66.01
68912;SHT31;55953;51.650;-0.522;2023-05-10T15:51:49;18.93;65.16